sensor_id;sensor_type;location;lat;lon;timestamp;P1;durP1;ratioP1;P2;durP2;ratioP2
70270;SDS011;57680;54.292;18.598;2022-12-10T00:01:03;39.22;;;14.35;;
70270;SDS011;57680;54.292;18.598;2022-12-10T00:03:30;39.13;;;14.35;;
70270;SDS011;57680;54.292;18.598;2022-12-10T00:05:58;57.87;;;20.50;;
70270;SDS011;57680;54.292;18.598;2022-12-10T00:08:25;41.78;;;16.23;;
70270;SDS011;57680;54.292;18.598;2022-12-10T00:10:51;28.70;;;10.83;;
70270;SDS011;57680;54.292;18.598;2022-12-10T00:13:16;23.17;;;8.83;;
70270;SDS011;57680;54.292;18.598;2022-12-10T00:15:42;18.92;;;6.68;;
70270;SDS011;57680;54.292;18.598;2022-12-10T00:18:07;18.63;;;8.00;;
70270;SDS011;57680;54.292;18.598;2022-12-10T00:20:33;59.53;;;19.97;;
70270;SDS011;57680;54.292;18.598;2022-12-10T00:23:01;36.78;;;13.38;;
70270;SDS011;57680;54.292;18.598;2022-12-10T00:25:27;26.70;;;10.00;;
70270;SDS011;57680;54.292;18.598;2022-12-10T00:27:52;26.57;;;10.57;;
70270;SDS011;57680;54.292;18.598;2022-12-10T00:30:18;33.90;;;12.27;;
70270;SDS011;57680;54.292;18.598;2022-12-10T00:32:43;31.52;;;11.77;;
70270;SDS011;57680;54.292;18.598;2022-12-10T00:35:09;31.40;;;12.40;;
70270;SDS011;57680;54.292;18.598;2022-12-10T00:37:35;42.37;;;15.60;;
70270;SDS011;57680;54.292;18.598;2022-12-10T00:40:00;37.88;;;14.68;;
70270;SDS011;57680;54.292;18.598;2022-12-10T00:42:26;38.70;;;15.10;;
70270;SDS011;57680;54.292;18.598;2022-12-10T00:44:51;34.10;;;12.03;;
70270;SDS011;57680;54.292;18.598;2022-12-10T00:47:17;89.53;;;23.17;;
70270;SDS011;57680;54.292;18.598;2022-12-10T00:49:42;35.38;;;13.30;;
70270;SDS011;57680;54.292;18.598;2022-12-10T00:52:08;34.60;;;12.97;;
70270;SDS011;57680;54.292;18.598;2022-12-10T00:54:33;33.77;;;13.37;;
70270;SDS011;57680;54.292;18.598;2022-12-10T00:56:58;30.93;;;11.90;;
70270;SDS011;57680;54.292;18.598;2022-12-10T00:59:24;29.27;;;10.60;;
70270;SDS011;57680;54.292;18.598;2022-12-10T01:01:49;39.70;;;14.83;;
70270;SDS011;57680;54.292;18.598;2022-12-10T01:04:16;16.73;;;6.27;;
70270;SDS011;57680;54.292;18.598;2022-12-10T01:06:46;8.20;;;3.25;;
70270;SDS011;57680;54.292;18.598;2022-12-10T01:09:16;10.57;;;3.80;;
70270;SDS011;57680;54.292;18.598;2022-12-10T01:11:44;9.05;;;3.15;;
70270;SDS011;57680;54.292;18.598;2022-12-10T01:14:12;21.50;;;7.40;;
70270;SDS011;57680;54.292;18.598;2022-12-10T01:16:42;15.23;;;6.57;;
70270;SDS011;57680;54.292;18.598;2022-12-10T01:19:08;25.60;;;10.43;;
70270;SDS011;57680;54.292;18.598;2022-12-10T01:21:34;29.13;;;10.90;;
70270;SDS011;57680;54.292;18.598;2022-12-10T01:24:00;29.08;;;10.82;;
70270;SDS011;57680;54.292;18.598;2022-12-10T01:26:26;31.13;;;11.85;;
70270;SDS011;57680;54.292;18.598;2022-12-10T01:28:57;28.77;;;10.53;;
70270;SDS011;57680;54.292;18.598;2022-12-10T01:31:24;29.33;;;11.02;;
70270;SDS011;57680;54.292;18.598;2022-12-10T01:33:52;30.25;;;11.05;;
70270;SDS011;57680;54.292;18.598;2022-12-10T01:36:22;25.52;;;9.98;;
70270;SDS011;57680;54.292;18.598;2022-12-10T01:38:50;24.65;;;10.45;;
70270;SDS011;57680;54.292;18.598;2022-12-10T01:41:26;24.00;;;8.90;;
70270;SDS011;57680;54.292;18.598;2022-12-10T01:43:59;22.92;;;8.48;;
70270;SDS011;57680;54.292;18.598;2022-12-10T01:46:27;20.20;;;7.85;;
70270;SDS011;57680;54.292;18.598;2022-12-10T01:48:57;17.98;;;7.05;;
70270;SDS011;57680;54.292;18.598;2022-12-10T01:51:25;22.00;;;8.80;;
70270;SDS011;57680;54.292;18.598;2022-12-10T01:53:55;23.23;;;9.20;;
70270;SDS011;57680;54.292;18.598;2022-12-10T01:56:21;22.17;;;9.05;;
70270;SDS011;57680;54.292;18.598;2022-12-10T01:58:53;22.63;;;9.55;;
70270;SDS011;57680;54.292;18.598;2022-12-10T02:17:13;18.70;;;7.93;;
70270;SDS011;57680;54.292;18.598;2022-12-10T02:19:59;20.60;;;8.00;;
70270;SDS011;57680;54.292;18.598;2022-12-10T02:22:28;19.63;;;8.18;;
70270;SDS011;57680;54.292;18.598;2022-12-10T02:24:57;16.23;;;6.47;;
70270;SDS011;57680;54.292;18.598;2022-12-10T02:30:16;13.55;;;5.43;;
70270;SDS011;57680;54.292;18.598;2022-12-10T02:32:42;15.93;;;5.85;;
70270;SDS011;57680;54.292;18.598;2022-12-10T02:35:21;17.38;;;6.50;;
70270;SDS011;57680;54.292;18.598;2022-12-10T02:37:57;17.67;;;7.17;;
70270;SDS011;57680;54.292;18.598;2022-12-10T02:40:30;16.40;;;6.60;;
70270;SDS011;57680;54.292;18.598;2022-12-10T02:42:57;18.70;;;6.72;;
70270;SDS011;57680;54.292;18.598;2022-12-10T02:45:24;18.35;;;7.30;;
70270;SDS011;57680;54.292;18.598;2022-12-10T02:47:53;18.83;;;7.37;;
70270;SDS011;57680;54.292;18.598;2022-12-10T02:50:25;13.25;;;5.80;;
70270;SDS011;57680;54.292;18.598;2022-12-10T02:52:51;17.52;;;6.57;;
70270;SDS011;57680;54.292;18.598;2022-12-10T02:55:17;16.90;;;6.00;;
70270;SDS011;57680;54.292;18.598;2022-12-10T02:57:54;18.13;;;6.90;;
70270;SDS011;57680;54.292;18.598;2022-12-10T03:01:06;19.15;;;7.90;;
70270;SDS011;57680;54.292;18.598;2022-12-10T03:03:33;21.17;;;7.68;;
70270;SDS011;57680;54.292;18.598;2022-12-10T03:06:27;16.67;;;6.10;;
70270;SDS011;57680;54.292;18.598;2022-12-10T03:09:06;18.97;;;6.90;;
70270;SDS011;57680;54.292;18.598;2022-12-10T03:11:58;17.48;;;6.88;;
70270;SDS011;57680;54.292;18.598;2022-12-10T03:14:30;21.23;;;8.40;;
70270;SDS011;57680;54.292;18.598;2022-12-10T03:16:58;19.85;;;7.03;;
70270;SDS011;57680;54.292;18.598;2022-12-10T03:19:58;20.45;;;8.15;;
70270;SDS011;57680;54.292;18.598;2022-12-10T03:22:17;19.07;;;7.67;;
70270;SDS011;57680;54.292;18.598;2022-12-10T03:24:45;22.98;;;8.23;;
70270;SDS011;57680;54.292;18.598;2022-12-10T03:27:11;26.35;;;9.40;;
70270;SDS011;57680;54.292;18.598;2022-12-10T03:29:51;23.92;;;9.20;;
70270;SDS011;57680;54.292;18.598;2022-12-10T03:32:20;24.77;;;9.30;;
70270;SDS011;57680;54.292;18.598;2022-12-10T03:34:48;29.17;;;11.07;;
70270;SDS011;57680;54.292;18.598;2022-12-10T03:37:16;29.27;;;11.25;;
70270;SDS011;57680;54.292;18.598;2022-12-10T03:39:42;26.77;;;11.20;;
70270;SDS011;57680;54.292;18.598;2022-12-10T03:42:11;22.80;;;8.77;;
70270;SDS011;57680;54.292;18.598;2022-12-10T03:44:39;27.48;;;10.25;;
70270;SDS011;57680;54.292;18.598;2022-12-10T03:47:08;29.93;;;10.83;;
70270;SDS011;57680;54.292;18.598;2022-12-10T03:49:37;23.50;;;9.63;;
70270;SDS011;57680;54.292;18.598;2022-12-10T03:52:03;25.60;;;9.13;;
70270;SDS011;57680;54.292;18.598;2022-12-10T03:54:28;28.08;;;10.20;;
70270;SDS011;57680;54.292;18.598;2022-12-10T03:56:54;28.80;;;11.53;;
70270;SDS011;57680;54.292;18.598;2022-12-10T03:59:20;25.77;;;10.30;;
70270;SDS011;57680;54.292;18.598;2022-12-10T04:01:46;29.83;;;11.65;;
70270;SDS011;57680;54.292;18.598;2022-12-10T04:04:11;23.40;;;9.97;;
70270;SDS011;57680;54.292;18.598;2022-12-10T04:06:37;24.27;;;8.82;;
70270;SDS011;57680;54.292;18.598;2022-12-10T04:09:04;23.50;;;8.30;;
70270;SDS011;57680;54.292;18.598;2022-12-10T04:11:29;23.05;;;8.20;;
70270;SDS011;57680;54.292;18.598;2022-12-10T04:13:54;26.00;;;9.17;;
70270;SDS011;57680;54.292;18.598;2022-12-10T04:16:39;25.58;;;9.00;;
70270;SDS011;57680;54.292;18.598;2022-12-10T04:19:06;25.70;;;9.65;;
70270;SDS011;57680;54.292;18.598;2022-12-10T04:21:34;28.27;;;9.77;;
70270;SDS011;57680;54.292;18.598;2022-12-10T04:24:20;28.42;;;9.45;;
70270;SDS011;57680;54.292;18.598;2022-12-10T04:27:10;24.50;;;9.00;;
70270;SDS011;57680;54.292;18.598;2022-12-10T04:29:38;21.27;;;8.15;;
70270;SDS011;57680;54.292;18.598;2022-12-10T04:32:04;28.98;;;9.85;;
70270;SDS011;57680;54.292;18.598;2022-12-10T04:34:30;24.27;;;9.37;;
70270;SDS011;57680;54.292;18.598;2022-12-10T04:36:57;23.60;;;9.25;;
70270;SDS011;57680;54.292;18.598;2022-12-10T04:39:23;23.02;;;8.27;;
70270;SDS011;57680;54.292;18.598;2022-12-10T04:41:49;18.07;;;6.13;;
70270;SDS011;57680;54.292;18.598;2022-12-10T04:44:15;19.35;;;7.72;;
70270;SDS011;57680;54.292;18.598;2022-12-10T04:46:41;22.83;;;8.25;;
70270;SDS011;57680;54.292;18.598;2022-12-10T04:49:07;21.60;;;8.77;;
70270;SDS011;57680;54.292;18.598;2022-12-10T04:51:33;29.05;;;9.80;;
70270;SDS011;57680;54.292;18.598;2022-12-10T04:53:59;21.30;;;8.33;;
70270;SDS011;57680;54.292;18.598;2022-12-10T04:56:24;23.77;;;7.90;;
70270;SDS011;57680;54.292;18.598;2022-12-10T04:58:50;24.02;;;8.60;;
70270;SDS011;57680;54.292;18.598;2022-12-10T05:01:16;23.97;;;9.33;;
70270;SDS011;57680;54.292;18.598;2022-12-10T05:03:43;25.20;;;9.82;;
70270;SDS011;57680;54.292;18.598;2022-12-10T05:06:10;26.13;;;9.80;;
70270;SDS011;57680;54.292;18.598;2022-12-10T05:08:37;27.23;;;9.82;;
70270;SDS011;57680;54.292;18.598;2022-12-10T05:11:05;24.70;;;9.45;;
70270;SDS011;57680;54.292;18.598;2022-12-10T05:13:32;28.57;;;10.20;;
70270;SDS011;57680;54.292;18.598;2022-12-10T05:16:00;25.55;;;9.85;;
70270;SDS011;57680;54.292;18.598;2022-12-10T05:18:26;29.92;;;10.05;;
70270;SDS011;57680;54.292;18.598;2022-12-10T05:20:52;29.80;;;10.43;;
70270;SDS011;57680;54.292;18.598;2022-12-10T05:23:17;26.00;;;10.10;;
70270;SDS011;57680;54.292;18.598;2022-12-10T05:25:59;27.70;;;9.98;;
70270;SDS011;57680;54.292;18.598;2022-12-10T05:28:33;24.95;;;9.65;;
70270;SDS011;57680;54.292;18.598;2022-12-10T05:31:03;28.13;;;10.25;;
70270;SDS011;57680;54.292;18.598;2022-12-10T05:33:28;25.80;;;9.27;;
70270;SDS011;57680;54.292;18.598;2022-12-10T05:36:01;30.20;;;10.37;;
70270;SDS011;57680;54.292;18.598;2022-12-10T05:38:28;28.83;;;10.90;;
70270;SDS011;57680;54.292;18.598;2022-12-10T05:41:00;26.90;;;9.85;;
70270;SDS011;57680;54.292;18.598;2022-12-10T05:43:28;27.10;;;10.45;;
70270;SDS011;57680;54.292;18.598;2022-12-10T05:45:54;24.93;;;9.67;;
70270;SDS011;57680;54.292;18.598;2022-12-10T05:48:24;28.85;;;9.63;;
70270;SDS011;57680;54.292;18.598;2022-12-10T05:50:49;30.00;;;9.97;;
70270;SDS011;57680;54.292;18.598;2022-12-10T05:53:15;28.07;;;10.43;;
70270;SDS011;57680;54.292;18.598;2022-12-10T05:55:43;31.50;;;11.32;;
70270;SDS011;57680;54.292;18.598;2022-12-10T05:58:08;27.90;;;9.87;;
70270;SDS011;57680;54.292;18.598;2022-12-10T06:00:34;24.20;;;8.40;;
70270;SDS011;57680;54.292;18.598;2022-12-10T06:02:59;26.57;;;9.73;;
70270;SDS011;57680;54.292;18.598;2022-12-10T06:05:25;30.17;;;11.35;;
70270;SDS011;57680;54.292;18.598;2022-12-10T06:07:51;26.73;;;10.40;;
70270;SDS011;57680;54.292;18.598;2022-12-10T06:10:16;24.92;;;9.05;;
70270;SDS011;57680;54.292;18.598;2022-12-10T06:12:42;28.30;;;10.00;;
70270;SDS011;57680;54.292;18.598;2022-12-10T06:15:08;24.87;;;8.93;;
70270;SDS011;57680;54.292;18.598;2022-12-10T06:17:34;28.70;;;10.00;;
70270;SDS011;57680;54.292;18.598;2022-12-10T06:20:01;24.08;;;9.25;;
70270;SDS011;57680;54.292;18.598;2022-12-10T06:22:26;29.27;;;10.20;;
70270;SDS011;57680;54.292;18.598;2022-12-10T06:24:52;30.08;;;10.80;;
70270;SDS011;57680;54.292;18.598;2022-12-10T06:27:18;24.47;;;9.13;;
70270;SDS011;57680;54.292;18.598;2022-12-10T06:29:44;29.05;;;9.65;;
70270;SDS011;57680;54.292;18.598;2022-12-10T06:32:09;29.90;;;10.30;;
70270;SDS011;57680;54.292;18.598;2022-12-10T06:34:35;24.60;;;9.45;;
70270;SDS011;57680;54.292;18.598;2022-12-10T06:37:00;24.10;;;8.77;;
70270;SDS011;57680;54.292;18.598;2022-12-10T06:39:26;30.17;;;11.03;;
70270;SDS011;57680;54.292;18.598;2022-12-10T06:41:51;25.83;;;9.73;;
70270;SDS011;57680;54.292;18.598;2022-12-10T06:44:17;25.83;;;8.40;;
70270;SDS011;57680;54.292;18.598;2022-12-10T06:46:42;25.73;;;8.90;;
70270;SDS011;57680;54.292;18.598;2022-12-10T06:49:08;25.40;;;9.43;;
70270;SDS011;57680;54.292;18.598;2022-12-10T06:51:33;24.00;;;8.57;;
70270;SDS011;57680;54.292;18.598;2022-12-10T06:53:59;23.60;;;8.33;;
70270;SDS011;57680;54.292;18.598;2022-12-10T06:56:24;23.93;;;8.30;;
70270;SDS011;57680;54.292;18.598;2022-12-10T06:58:50;28.25;;;10.07;;
70270;SDS011;57680;54.292;18.598;2022-12-10T07:01:19;47.03;;;10.30;;
70270;SDS011;57680;54.292;18.598;2022-12-10T07:03:48;27.50;;;9.45;;
70270;SDS011;57680;54.292;18.598;2022-12-10T07:06:15;25.40;;;8.60;;
70270;SDS011;57680;54.292;18.598;2022-12-10T07:08:40;25.67;;;9.03;;
70270;SDS011;57680;54.292;18.598;2022-12-10T07:11:07;26.67;;;9.35;;
70270;SDS011;57680;54.292;18.598;2022-12-10T07:13:34;23.67;;;9.40;;
70270;SDS011;57680;54.292;18.598;2022-12-10T07:16:00;22.30;;;7.67;;
70270;SDS011;57680;54.292;18.598;2022-12-10T07:18:25;26.50;;;8.73;;
70270;SDS011;57680;54.292;18.598;2022-12-10T07:20:52;22.80;;;9.00;;
70270;SDS011;57680;54.292;18.598;2022-12-10T07:23:18;27.90;;;9.73;;
70270;SDS011;57680;54.292;18.598;2022-12-10T07:25:44;27.00;;;10.45;;
70270;SDS011;57680;54.292;18.598;2022-12-10T07:28:09;26.70;;;11.13;;
70270;SDS011;57680;54.292;18.598;2022-12-10T07:30:35;28.13;;;10.40;;
70270;SDS011;57680;54.292;18.598;2022-12-10T07:33:00;25.30;;;8.87;;
70270;SDS011;57680;54.292;18.598;2022-12-10T07:35:26;27.27;;;9.83;;
70270;SDS011;57680;54.292;18.598;2022-12-10T07:37:51;28.07;;;10.97;;
70270;SDS011;57680;54.292;18.598;2022-12-10T07:40:16;25.60;;;9.23;;
70270;SDS011;57680;54.292;18.598;2022-12-10T07:42:42;29.57;;;10.83;;
70270;SDS011;57680;54.292;18.598;2022-12-10T07:45:07;26.10;;;10.00;;
70270;SDS011;57680;54.292;18.598;2022-12-10T07:47:37;25.38;;;9.85;;
70270;SDS011;57680;54.292;18.598;2022-12-10T07:50:04;24.38;;;9.80;;
70270;SDS011;57680;54.292;18.598;2022-12-10T07:52:30;26.50;;;9.32;;
70270;SDS011;57680;54.292;18.598;2022-12-10T07:54:56;24.30;;;8.43;;
70270;SDS011;57680;54.292;18.598;2022-12-10T07:57:21;31.33;;;11.10;;
70270;SDS011;57680;54.292;18.598;2022-12-10T07:59:47;27.17;;;10.77;;
70270;SDS011;57680;54.292;18.598;2022-12-10T08:02:12;26.58;;;9.95;;
70270;SDS011;57680;54.292;18.598;2022-12-10T08:04:38;27.33;;;10.33;;
70270;SDS011;57680;54.292;18.598;2022-12-10T08:07:04;26.15;;;10.88;;
70270;SDS011;57680;54.292;18.598;2022-12-10T08:09:29;28.30;;;10.03;;
70270;SDS011;57680;54.292;18.598;2022-12-10T08:11:55;25.42;;;9.82;;
70270;SDS011;57680;54.292;18.598;2022-12-10T08:14:20;27.17;;;10.00;;
70270;SDS011;57680;54.292;18.598;2022-12-10T08:16:46;32.97;;;11.40;;
70270;SDS011;57680;54.292;18.598;2022-12-10T08:19:12;28.05;;;9.93;;
70270;SDS011;57680;54.292;18.598;2022-12-10T08:21:37;28.10;;;10.10;;
70270;SDS011;57680;54.292;18.598;2022-12-10T08:24:03;27.20;;;10.07;;
70270;SDS011;57680;54.292;18.598;2022-12-10T08:26:30;25.30;;;9.50;;
70270;SDS011;57680;54.292;18.598;2022-12-10T08:28:57;29.50;;;10.55;;
70270;SDS011;57680;54.292;18.598;2022-12-10T08:31:23;28.73;;;10.43;;
70270;SDS011;57680;54.292;18.598;2022-12-10T08:33:50;30.77;;;10.63;;
70270;SDS011;57680;54.292;18.598;2022-12-10T08:36:16;27.05;;;9.93;;
70270;SDS011;57680;54.292;18.598;2022-12-10T08:38:42;19.07;;;7.63;;
70270;SDS011;57680;54.292;18.598;2022-12-10T08:41:13;25.58;;;9.77;;
70270;SDS011;57680;54.292;18.598;2022-12-10T08:43:43;29.48;;;10.95;;
70270;SDS011;57680;54.292;18.598;2022-12-10T08:46:09;28.97;;;10.40;;
70270;SDS011;57680;54.292;18.598;2022-12-10T08:48:35;28.17;;;9.52;;
70270;SDS011;57680;54.292;18.598;2022-12-10T08:51:02;29.77;;;10.40;;
70270;SDS011;57680;54.292;18.598;2022-12-10T08:53:28;31.33;;;10.40;;
70270;SDS011;57680;54.292;18.598;2022-12-10T08:55:54;28.33;;;10.53;;
70270;SDS011;57680;54.292;18.598;2022-12-10T08:58:20;27.77;;;10.73;;
70270;SDS011;57680;54.292;18.598;2022-12-10T09:00:46;29.65;;;11.32;;
70270;SDS011;57680;54.292;18.598;2022-12-10T09:03:13;32.72;;;12.38;;
70270;SDS011;57680;54.292;18.598;2022-12-10T09:05:39;31.17;;;11.37;;
70270;SDS011;57680;54.292;18.598;2022-12-10T09:08:04;31.30;;;12.32;;
70270;SDS011;57680;54.292;18.598;2022-12-10T09:10:30;29.27;;;11.40;;
70270;SDS011;57680;54.292;18.598;2022-12-10T09:12:56;32.58;;;12.02;;
70270;SDS011;57680;54.292;18.598;2022-12-10T09:15:21;31.30;;;11.60;;
70270;SDS011;57680;54.292;18.598;2022-12-10T09:17:47;31.60;;;12.20;;
70270;SDS011;57680;54.292;18.598;2022-12-10T09:20:12;35.17;;;13.25;;
70270;SDS011;57680;54.292;18.598;2022-12-10T09:22:38;32.97;;;12.47;;
70270;SDS011;57680;54.292;18.598;2022-12-10T09:25:04;35.00;;;12.90;;
70270;SDS011;57680;54.292;18.598;2022-12-10T09:27:31;34.00;;;12.23;;
70270;SDS011;57680;54.292;18.598;2022-12-10T09:29:57;30.57;;;12.10;;
70270;SDS011;57680;54.292;18.598;2022-12-10T09:32:22;31.17;;;11.45;;
70270;SDS011;57680;54.292;18.598;2022-12-10T09:34:50;31.93;;;11.40;;
70270;SDS011;57680;54.292;18.598;2022-12-10T09:37:16;31.08;;;11.63;;
70270;SDS011;57680;54.292;18.598;2022-12-10T09:39:42;32.70;;;12.23;;
70270;SDS011;57680;54.292;18.598;2022-12-10T09:47:16;26.23;;;9.40;;
70270;SDS011;57680;54.292;18.598;2022-12-10T09:50:04;27.02;;;10.65;;
70270;SDS011;57680;54.292;18.598;2022-12-10T09:52:41;30.40;;;10.65;;
70270;SDS011;57680;54.292;18.598;2022-12-10T09:55:18;28.25;;;9.43;;
70270;SDS011;57680;54.292;18.598;2022-12-10T09:57:48;27.33;;;8.97;;
70270;SDS011;57680;54.292;18.598;2022-12-10T10:02:50;29.75;;;10.13;;
70270;SDS011;57680;54.292;18.598;2022-12-10T10:07:51;28.13;;;10.95;;
70270;SDS011;57680;54.292;18.598;2022-12-10T10:10:21;30.83;;;11.53;;
70270;SDS011;57680;54.292;18.598;2022-12-10T10:12:54;27.77;;;10.63;;
70270;SDS011;57680;54.292;18.598;2022-12-10T10:15:24;30.20;;;10.27;;
70270;SDS011;57680;54.292;18.598;2022-12-10T10:17:54;30.92;;;11.05;;
70270;SDS011;57680;54.292;18.598;2022-12-10T10:20:23;26.52;;;10.43;;
70270;SDS011;57680;54.292;18.598;2022-12-10T10:22:49;26.70;;;10.13;;
70270;SDS011;57680;54.292;18.598;2022-12-10T10:25:17;28.27;;;9.30;;
70270;SDS011;57680;54.292;18.598;2022-12-10T10:27:44;22.98;;;9.40;;
70270;SDS011;57680;54.292;18.598;2022-12-10T10:30:15;24.08;;;9.45;;
70270;SDS011;57680;54.292;18.598;2022-12-10T10:32:44;24.35;;;9.73;;
70270;SDS011;57680;54.292;18.598;2022-12-10T10:35:31;27.80;;;10.55;;
70270;SDS011;57680;54.292;18.598;2022-12-10T10:38:00;27.37;;;11.40;;
70270;SDS011;57680;54.292;18.598;2022-12-10T10:41:11;33.90;;;11.98;;
70270;SDS011;57680;54.292;18.598;2022-12-10T10:43:20;25.70;;;10.30;;
70270;SDS011;57680;54.292;18.598;2022-12-10T10:46:31;27.50;;;10.75;;
70270;SDS011;57680;54.292;18.598;2022-12-10T10:48:47;29.35;;;12.00;;
70270;SDS011;57680;54.292;18.598;2022-12-10T10:53:51;31.33;;;12.20;;
70270;SDS011;57680;54.292;18.598;2022-12-10T10:59:48;32.55;;;12.05;;
70270;SDS011;57680;54.292;18.598;2022-12-10T11:01:54;29.65;;;10.95;;
70270;SDS011;57680;54.292;18.598;2022-12-10T11:12:55;29.83;;;12.07;;
70270;SDS011;57680;54.292;18.598;2022-12-10T11:15:38;30.90;;;12.02;;
70270;SDS011;57680;54.292;18.598;2022-12-10T11:18:25;31.03;;;12.77;;
70270;SDS011;57680;54.292;18.598;2022-12-10T11:23:42;34.13;;;12.77;;
70270;SDS011;57680;54.292;18.598;2022-12-10T11:35:02;34.88;;;13.02;;
70270;SDS011;57680;54.292;18.598;2022-12-10T11:37:51;34.45;;;12.90;;
70270;SDS011;57680;54.292;18.598;2022-12-10T11:40:43;32.47;;;12.20;;
70270;SDS011;57680;54.292;18.598;2022-12-10T11:46:05;33.30;;;12.80;;
70270;SDS011;57680;54.292;18.598;2022-12-10T11:54:48;36.65;;;14.60;;
70270;SDS011;57680;54.292;18.598;2022-12-10T12:00:13;36.63;;;13.20;;
70270;SDS011;57680;54.292;18.598;2022-12-10T12:14:13;46.50;;;16.43;;
70270;SDS011;57680;54.292;18.598;2022-12-10T12:17:00;44.22;;;17.20;;
70270;SDS011;57680;54.292;18.598;2022-12-10T12:19:44;53.97;;;19.05;;
70270;SDS011;57680;54.292;18.598;2022-12-10T12:24:57;47.15;;;17.05;;
70270;SDS011;57680;54.292;18.598;2022-12-10T12:27:48;36.67;;;14.27;;
70270;SDS011;57680;54.292;18.598;2022-12-10T12:30:19;44.53;;;16.70;;
70270;SDS011;57680;54.292;18.598;2022-12-10T12:40:57;46.57;;;16.23;;
70270;SDS011;57680;54.292;18.598;2022-12-10T12:43:39;45.28;;;17.00;;
70270;SDS011;57680;54.292;18.598;2022-12-10T12:49:10;43.10;;;15.80;;
70270;SDS011;57680;54.292;18.598;2022-12-10T12:51:49;44.72;;;16.75;;
70270;SDS011;57680;54.292;18.598;2022-12-10T12:54:23;39.17;;;14.70;;
70270;SDS011;57680;54.292;18.598;2022-12-10T12:57:06;41.30;;;15.23;;
70270;SDS011;57680;54.292;18.598;2022-12-10T13:00:14;48.63;;;17.33;;
70270;SDS011;57680;54.292;18.598;2022-12-10T13:05:20;49.28;;;18.25;;
70270;SDS011;57680;54.292;18.598;2022-12-10T13:15:56;57.50;;;20.70;;
70270;SDS011;57680;54.292;18.598;2022-12-10T13:18:41;53.17;;;19.13;;
70270;SDS011;57680;54.292;18.598;2022-12-10T13:21:19;54.67;;;18.73;;
70270;SDS011;57680;54.292;18.598;2022-12-10T13:23:53;47.58;;;17.85;;
70270;SDS011;57680;54.292;18.598;2022-12-10T13:26:33;45.47;;;18.13;;
70270;SDS011;57680;54.292;18.598;2022-12-10T13:29:12;47.97;;;18.90;;
70270;SDS011;57680;54.292;18.598;2022-12-10T13:32:01;50.97;;;18.90;;
70270;SDS011;57680;54.292;18.598;2022-12-10T13:34:33;56.53;;;20.83;;
70270;SDS011;57680;54.292;18.598;2022-12-10T13:37:05;55.92;;;20.58;;
70270;SDS011;57680;54.292;18.598;2022-12-10T13:39:46;53.13;;;19.95;;
70270;SDS011;57680;54.292;18.598;2022-12-10T13:45:03;53.45;;;18.50;;
70270;SDS011;57680;54.292;18.598;2022-12-10T13:47:48;57.50;;;20.43;;
70270;SDS011;57680;54.292;18.598;2022-12-10T13:54:00;59.40;;;23.30;;
70270;SDS011;57680;54.292;18.598;2022-12-10T13:56:29;55.55;;;19.77;;
70270;SDS011;57680;54.292;18.598;2022-12-10T14:07:56;49.72;;;17.67;;
70270;SDS011;57680;54.292;18.598;2022-12-10T14:10:27;46.80;;;18.35;;
70270;SDS011;57680;54.292;18.598;2022-12-10T14:12:57;48.70;;;18.95;;
70270;SDS011;57680;54.292;18.598;2022-12-10T14:15:24;55.50;;;19.40;;
70270;SDS011;57680;54.292;18.598;2022-12-10T14:17:56;54.80;;;19.67;;
70270;SDS011;57680;54.292;18.598;2022-12-10T14:20:27;49.00;;;17.15;;
70270;SDS011;57680;54.292;18.598;2022-12-10T14:22:56;50.45;;;18.15;;
70270;SDS011;57680;54.292;18.598;2022-12-10T14:25:46;42.70;;;15.60;;
70270;SDS011;57680;54.292;18.598;2022-12-10T14:28:13;52.97;;;17.63;;
70270;SDS011;57680;54.292;18.598;2022-12-10T14:30:45;50.58;;;17.65;;
70270;SDS011;57680;54.292;18.598;2022-12-10T14:33:15;54.55;;;17.73;;
70270;SDS011;57680;54.292;18.598;2022-12-10T14:35:42;55.42;;;17.88;;
70270;SDS011;57680;54.292;18.598;2022-12-10T14:38:16;55.83;;;18.75;;
70270;SDS011;57680;54.292;18.598;2022-12-10T14:40:52;53.17;;;17.93;;
70270;SDS011;57680;54.292;18.598;2022-12-10T14:43:22;56.58;;;20.52;;
70270;SDS011;57680;54.292;18.598;2022-12-10T14:45:56;53.80;;;20.60;;
70270;SDS011;57680;54.292;18.598;2022-12-10T14:48:23;53.08;;;19.73;;
70270;SDS011;57680;54.292;18.598;2022-12-10T14:50:49;54.47;;;20.48;;
70270;SDS011;57680;54.292;18.598;2022-12-10T14:53:24;52.27;;;19.93;;
70270;SDS011;57680;54.292;18.598;2022-12-10T14:56:04;58.70;;;20.83;;
70270;SDS011;57680;54.292;18.598;2022-12-10T15:01:30;53.53;;;20.75;;
70270;SDS011;57680;54.292;18.598;2022-12-10T15:04:01;54.07;;;19.63;;
70270;SDS011;57680;54.292;18.598;2022-12-10T15:06:33;56.42;;;21.52;;
70270;SDS011;57680;54.292;18.598;2022-12-10T15:09:00;48.55;;;16.98;;
70270;SDS011;57680;54.292;18.598;2022-12-10T15:11:26;51.50;;;17.80;;
70270;SDS011;57680;54.292;18.598;2022-12-10T15:13:54;51.92;;;19.00;;
70270;SDS011;57680;54.292;18.598;2022-12-10T15:16:30;52.95;;;19.08;;
70270;SDS011;57680;54.292;18.598;2022-12-10T15:19:23;52.10;;;19.23;;
70270;SDS011;57680;54.292;18.598;2022-12-10T15:22:02;67.38;;;22.13;;
70270;SDS011;57680;54.292;18.598;2022-12-10T15:24:46;59.93;;;20.10;;
70270;SDS011;57680;54.292;18.598;2022-12-10T15:27:15;57.55;;;21.80;;
70270;SDS011;57680;54.292;18.598;2022-12-10T15:29:43;64.13;;;24.42;;
70270;SDS011;57680;54.292;18.598;2022-12-10T15:32:13;61.73;;;22.40;;
70270;SDS011;57680;54.292;18.598;2022-12-10T15:34:50;59.75;;;21.88;;
70270;SDS011;57680;54.292;18.598;2022-12-10T15:37:20;56.65;;;21.20;;
70270;SDS011;57680;54.292;18.598;2022-12-10T15:39:49;56.95;;;20.65;;
70270;SDS011;57680;54.292;18.598;2022-12-10T15:42:29;60.65;;;19.88;;
70270;SDS011;57680;54.292;18.598;2022-12-10T15:45:15;66.90;;;22.20;;
70270;SDS011;57680;54.292;18.598;2022-12-10T15:47:44;63.08;;;21.38;;
70270;SDS011;57680;54.292;18.598;2022-12-10T15:50:10;47.35;;;17.00;;
70270;SDS011;57680;54.292;18.598;2022-12-10T15:52:36;65.22;;;21.92;;
70270;SDS011;57680;54.292;18.598;2022-12-10T15:55:02;55.80;;;19.80;;
70270;SDS011;57680;54.292;18.598;2022-12-10T15:57:29;58.53;;;21.77;;
70270;SDS011;57680;54.292;18.598;2022-12-10T15:59:57;63.00;;;22.38;;
70270;SDS011;57680;54.292;18.598;2022-12-10T16:02:26;68.30;;;23.25;;
70270;SDS011;57680;54.292;18.598;2022-12-10T16:05:02;61.28;;;22.67;;
70270;SDS011;57680;54.292;18.598;2022-12-10T16:07:47;58.53;;;22.52;;
70270;SDS011;57680;54.292;18.598;2022-12-10T16:10:16;53.40;;;19.98;;
70270;SDS011;57680;54.292;18.598;2022-12-10T16:12:45;65.57;;;24.77;;
70270;SDS011;57680;54.292;18.598;2022-12-10T16:15:19;63.88;;;23.20;;
70270;SDS011;57680;54.292;18.598;2022-12-10T16:17:49;52.13;;;18.48;;
70270;SDS011;57680;54.292;18.598;2022-12-10T16:22:51;57.78;;;21.77;;
70270;SDS011;57680;54.292;18.598;2022-12-10T16:25:18;75.00;;;25.48;;
70270;SDS011;57680;54.292;18.598;2022-12-10T16:27:45;104.60;;;31.65;;
70270;SDS011;57680;54.292;18.598;2022-12-10T16:30:16;76.60;;;26.17;;
70270;SDS011;57680;54.292;18.598;2022-12-10T16:32:47;69.05;;;24.48;;